Time;durP1;ratioP1;P1;durP2;ratioP2;P2;SDS_P1;SDS_P2;PMS_P1;PMS_P2;Temp;Humidity;BMP_temperature;BMP_pressure;BME280_temperature;BME280_humidity;BME280_pressure;Samples;Min_cycle;Max_cycle;Signal;HPM_P1;HPM_P2
2023/07/11 00:00:27;;;;;;;;;;;;;;;25.18;38.65;96150.06;6151603;28;20285;-71
2023/07/11 00:03:30;;;;;;;;;;;;;;;25.18;38.25;96160.03;6134567;28;20019;-71
2023/07/11 00:06:32;;;;;;;;;;;;;;;25.19;38.28;96156.28;6151085;28;19930;-70
2023/07/11 00:09:34;;;;;;;;;;;;;;;25.19;38.54;96156.28;6151006;28;20025;-70
2023/07/11 00:12:37;;;;;;;;;;;;;;;25.19;38.62;96167.88;6134999;28;19922;-70
2023/07/11 00:15:41;;;;;;;;;;;;;;;25.20;38.85;96171.41;6134375;28;19922;-71
2023/07/11 00:18:47;;;;;;;;;;;;;;;25.20;38.84;96166.84;6150736;28;19922;-70
2023/07/11 00:21:50;;;;;;;;;;;;;;;25.20;38.95;96168.72;6149747;28;19924;-70
2023/07/11 00:24:53;;;;;;;;;;;;;;;25.18;39.01;96168.09;6151078;28;20389;-71
2023/07/11 00:27:56;;;;;;;;;;;;;;;25.16;39.20;96167.47;6151623;28;19922;-71
2023/07/11 00:31:00;;;;;;;;;;;;;;;25.15;39.30;96176.59;6151344;29;19925;-70
2023/07/11 00:34:02;;;;;;;;;;;;;;;25.15;39.51;96172.03;6133616;29;20315;-70
2023/07/11 00:37:04;;;;;;;;;;;;;;;25.17;39.43;96171.84;6151205;28;20085;-70
2023/07/11 00:40:06;;;;;;;;;;;;;;;25.18;39.41;96176.19;6133422;28;19930;-71
2023/07/11 00:43:12;;;;;;;;;;;;;;;25.18;39.31;96182.38;6150876;28;20017;-71
2023/07/11 00:46:21;;;;;;;;;;;;;;;25.15;39.83;96171.22;6151285;28;19923;-70
2023/07/11 00:49:24;;;;;;;;;;;;;;;25.09;39.73;96187.13;6151015;28;20312;-70
2023/07/11 00:52:26;;;;;;;;;;;;;;;25.05;39.97;96177.81;6150182;28;20296;-70
2023/07/11 00:55:27;;;;;;;;;;;;;;;25.02;39.95;96188.16;6150813;28;19922;-70
2023/07/11 00:58:32;;;;;;;;;;;;;;;24.96;40.00;96184.41;6149650;28;20010;-70
2023/07/11 01:01:33;;;;;;;;;;;;;;;24.93;39.94;96187.53;6150579;28;19922;-69
2023/07/11 01:04:37;;;;;;;;;;;;;;;24.89;40.57;96188.97;6150493;28;19922;-70
2023/07/11 01:07:43;;;;;;;;;;;;;;;24.87;40.55;96191.03;6150493;28;19922;-70
2023/07/11 01:10:47;;;;;;;;;;;;;;;24.86;40.78;96195.59;6150752;28;20312;-73
2023/07/11 01:13:53;;;;;;;;;;;;;;;24.86;40.41;96202.84;6149639;28;19960;-70
2023/07/11 01:16:57;;;;;;;;;;;;;;;24.86;40.63;96198.28;6149989;28;20396;-71
2023/07/11 01:20:03;;;;;;;;;;;;;;;24.89;40.83;96198.94;6150006;28;19922;-71
2023/07/11 01:23:05;;;;;;;;;;;;;;;24.93;40.66;96200.97;6149846;28;19970;-70
2023/07/11 01:26:07;;;;;;;;;;;;;;;25.01;40.71;96200.78;6149767;28;19922;-72
2023/07/11 01:29:10;;;;;;;;;;;;;;;25.12;41.55;96193.13;6150286;28;20300;-71
2023/07/11 01:32:11;;;;;;;;;;;;;;;25.27;40.53;96196.47;6148879;28;19922;-71
2023/07/11 01:35:17;;;;;;;;;;;;;;;25.44;40.26;96195.00;6149748;28;19922;-71
2023/07/11 01:38:19;;;;;;;;;;;;;;;25.61;40.41;96186.47;6149397;29;20021;-72
2023/07/11 01:41:20;;;;;;;;;;;;;;;25.77;40.00;96191.41;6132414;29;20319;-71
2023/07/11 01:44:24;;;;;;;;;;;;;;;25.93;39.65;96190.97;6133126;29;19925;-70
2023/07/11 01:47:27;;;;;;;;;;;;;;;26.07;39.89;96190.91;6149608;28;20282;-70
2023/07/11 01:50:31;;;;;;;;;;;;;;;26.16;39.90;96205.84;6149634;28;19943;-71
2023/07/11 01:53:35;;;;;;;;;;;;;;;26.26;39.68;96199.97;6149200;28;19922;-71
2023/07/11 01:56:40;;;;;;;;;;;;;;;26.35;39.37;96194.09;6149484;28;19922;-70
2023/07/11 01:59:43;;;;;;;;;;;;;;;26.46;39.37;96195.28;6149411;28;19929;-70
2023/07/11 02:02:44;;;;;;;;;;;;;;;26.55;39.61;96204.00;6148716;28;19922;-70
2023/07/11 02:05:50;;;;;;;;;;;;;;;26.60;39.24;96196.09;6149084;28;19922;-70
2023/07/11 02:08:54;;;;;;;;;;;;;;;26.63;39.87;96201.03;6149348;28;19922;-71
2023/07/11 02:11:58;;;;;;;;;;;;;;;26.64;39.54;96202.72;6132642;29;20013;-71
2023/07/11 02:14:59;;;;;;;;;;;;;;;26.65;39.63;96198.97;6147861;28;19922;-71
2023/07/11 02:18:00;;;;;;;;;;;;;;;26.68;39.86;96203.91;6148534;28;19929;-70
2023/07/11 02:21:05;;;;;;;;;;;;;;;26.77;39.63;96205.31;6148826;28;20396;-72
2023/07/11 02:24:08;;;;;;;;;;;;;;;26.91;39.36;96197.13;6148975;28;19930;-72
2023/07/11 02:27:10;;;;;;;;;;;;;;;27.07;39.34;96207.41;6148415;28;20315;-71
2023/07/11 02:30:13;;;;;;;;;;;;;;;27.26;39.01;96198.34;6148677;28;19922;-71
2023/07/11 02:33:19;;;;;;;;;;;;;;;27.49;38.43;96202.31;6148622;28;20016;-72
2023/07/11 02:36:24;;;;;;;;;;;;;;;27.70;38.07;96201.84;6148605;28;19982;-71
2023/07/11 02:39:25;;;;;;;;;;;;;;;27.87;38.20;96201.31;6146902;28;20399;-71
2023/07/11 02:42:29;;;;;;;;;;;;;;;27.96;38.49;96210.75;6148296;28;20376;-70
2023/07/11 02:45:30;;;;;;;;;;;;;;;28.02;38.10;96214.44;6147857;28;19929;-71
2023/07/11 02:48:33;;;;;;;;;;;;;;;28.11;37.46;96204.97;6131666;29;19922;-72
2023/07/11 02:51:35;;;;;;;;;;;;;;;28.12;37.68;96210.16;6148381;28;19922;-71
2023/07/11 02:54:39;;;;;;;;;;;;;;;28.38;37.40;96225.25;6148084;28;19930;-71
2023/07/11 02:57:45;;;;;;;;;;;;;;;28.21;37.78;96214.22;6148420;28;19922;-70
2023/07/11 03:00:53;;;;;;;;;;;;;;;28.30;37.34;96222.03;6148471;28;19923;-71
2023/07/11 03:03:54;;;;;;;;;;;;;;;28.52;35.90;96228.63;6148101;28;20301;-71
2023/07/11 03:07:00;;;;;;;;;;;;;;;28.67;34.97;96230.09;6147414;28;20308;-71
2023/07/11 03:10:04;;;;;;;;;;;;;;;28.61;35.14;96229.97;6148601;28;19922;-71
2023/07/11 03:13:08;;;;;;;;;;;;;;;28.52;35.60;96231.34;6131459;29;19922;-71
2023/07/11 03:16:09;;;;;;;;;;;;;;;28.56;35.87;96227.16;6147252;28;19942;-71
2023/07/11 03:19:12;;;;;;;;;;;;;;;28.74;35.90;96228.97;6114778;29;20013;-70
2023/07/11 03:22:17;;;;;;;;;;;;;;;28.81;35.79;96223.44;6131333;28;19918;-71
2023/07/11 03:25:20;;;;;;;;;;;;;;;29.03;34.22;96226.50;6148040;28;20311;-71
2023/07/11 03:28:25;;;;;;;;;;;;;;;29.07;33.50;96228.53;6146301;28;19918;-71
2023/07/11 03:31:26;;;;;;;;;;;;;;;29.08;33.57;96227.44;6147546;28;19929;-71
2023/07/11 03:34:30;;;;;;;;;;;;;;;29.09;33.18;96231.81;6130623;28;19923;-70
2023/07/11 03:37:33;;;;;;;;;;;;;;;29.25;31.75;96234.91;6147074;28;19922;-71
2023/07/11 03:40:36;;;;;;;;;;;;;;;29.33;30.94;96234.56;6147426;28;20191;-71
2023/07/11 03:43:38;;;;;;;;;;;;;;;29.33;31.00;96234.56;6147954;28;19929;-72
2023/07/11 03:46:41;;;;;;;;;;;;;;;29.40;30.93;96237.97;6147984;28;19930;-71
2023/07/11 03:49:45;;;;;;;;;;;;;;;29.41;31.25;96245.03;6147774;28;19922;-71
2023/07/11 03:52:46;;;;;;;;;;;;;;;29.58;31.09;96249.78;6147490;28;19930;-71
2023/07/11 03:55:49;;;;;;;;;;;;;;;29.77;31.32;96248.63;6150335;28;19922;-72
2023/07/11 03:58:55;;;;;;;;;;;;;;;29.97;31.21;96251.81;6152147;29;20347;-70
2023/07/11 04:01:59;;;;;;;;;;;;;;;30.32;30.98;96256.41;6151977;28;19922;-72
2023/07/11 04:05:00;;;;;;;;;;;;;;;30.42;30.51;96255.78;6151861;28;20073;-71
2023/07/11 04:08:01;;;;;;;;;;;;;;;30.43;30.73;96258.28;6150928;28;20377;-72
2023/07/11 04:11:04;;;;;;;;;;;;;;;30.26;31.02;96256.53;6151923;28;20383;-71
2023/07/11 04:14:06;;;;;;;;;;;;;;;30.25;31.33;96261.13;6151084;28;20356;-70
2023/07/11 04:17:12;;;;;;;;;;;;;;;30.45;31.37;96259.91;6151613;29;19922;-72
2023/07/11 04:20:15;;;;;;;;;;;;;;;30.68;30.74;96257.09;6151087;28;19929;-71
2023/07/11 04:23:19;;;;;;;;;;;;;;;30.86;30.90;96262.41;6150411;28;20304;-70
2023/07/11 04:26:22;;;;;;;;;;;;;;;31.02;30.24;96265.38;6150306;29;19922;-71
2023/07/11 04:29:29;;;;;;;;;;;;;;;31.27;30.36;96265.84;6151678;28;20281;-71
2023/07/11 04:32:33;;;;;;;;;;;;;;;31.53;30.28;96272.53;6151610;28;20020;-71
2023/07/11 04:35:34;;;;;;;;;;;;;;;31.79;30.29;96269.41;6151440;29;19922;-71
2023/07/11 04:38:38;;;;;;;;;;;;;;;31.99;30.05;96280.66;6151023;28;19929;-71
2023/07/11 04:41:39;;;;;;;;;;;;;;;32.12;30.19;96271.28;6134184;29;20420;-72
2023/07/11 04:44:45;;;;;;;;;;;;;;;32.42;30.54;96270.91;6151166;28;20016;-70
2023/07/11 04:47:48;;;;;;;;;;;;;;;33.11;28.98;96269.53;6151276;28;20427;-71
2023/07/11 04:50:55;;;;;;;;;;;;;;;35.32;26.35;96281.56;6150574;28;19929;-72
2023/07/11 04:53:56;;;;;;;;;;;;;;;36.73;22.39;96285.53;6150354;28;19929;-72
2023/07/11 04:56:58;;;;;;;;;;;;;;;37.03;21.94;96282.69;6150307;28;19922;-71
2023/07/11 05:00:05;;;;;;;;;;;;;;;37.99;20.75;96281.44;6150917;28;19926;-72
2023/07/11 05:03:09;;;;;;;;;;;;;;;39.71;19.13;96288.63;6150748;28;20119;-71
2023/07/11 05:06:13;;;;;;;;;;;;;;;41.96;18.06;96288.78;6149451;28;20384;-71
2023/07/11 05:09:19;;;;;;;;;;;;;;;42.25;18.06;96290.25;6150538;28;20393;-72
2023/07/11 05:12:20;;;;;;;;;;;;;;;42.16;16.14;96281.91;6132979;28;20327;-72
2023/07/11 05:15:25;;;;;;;;;;;;;;;41.22;16.47;96286.34;6150037;28;19922;-72
2023/07/11 05:18:26;;;;;;;;;;;;;;;41.02;16.19;96280.16;6149517;28;19961;-72
2023/07/11 05:21:32;;;;;;;;;;;;;;;41.45;16.02;96276.19;6150404;29;19926;-72
2023/07/11 05:24:36;;;;;;;;;;;;;;;43.42;12.47;96281.34;6149564;28;19923;-71
2023/07/11 05:27:39;;;;;;;;;;;;;;;45.15;12.12;96292.31;6149891;28;19923;-72
2023/07/11 05:30:43;;;;;;;;;;;;;;;47.41;10.53;96285.13;6149839;28;20372;-71
2023/07/11 05:33:46;;;;;;;;;;;;;;;48.83;10.05;96286.56;6150111;28;20016;-70
2023/07/11 05:36:49;;;;;;;;;;;;;;;49.74;9.43;96285.44;6149609;28;19922;-74
2023/07/11 05:39:50;;;;;;;;;;;;;;;51.10;8.17;96293.53;6150054;28;19922;-72
2023/07/11 05:42:53;;;;;;;;;;;;;;;51.55;8.69;96286.13;6149561;28;19944;-71
2023/07/11 05:45:58;;;;;;;;;;;;;;;52.79;6.79;96285.09;6149802;28;19922;-72
2023/07/11 05:49:04;;;;;;;;;;;;;;;53.47;7.33;96288.38;6149336;29;19922;-72
2023/07/11 05:52:07;;;;;;;;;;;;;;;53.82;7.04;96284.09;6131642;28;19945;-72
2023/07/11 05:55:11;;;;;;;;;;;;;;;54.75;6.59;96277.88;6150351;28;20455;-73
2023/07/11 05:58:15;;;;;;;;;;;;;;;55.24;6.47;96279.00;6156376;28;19998;-72
2023/07/11 06:01:22;;;;;;;;;;;;;;;55.22;6.08;96275.81;6172086;28;19922;-72
2023/07/11 06:04:26;;;;;;;;;;;;;;;55.54;5.96;96281.34;6178556;29;19930;-72
2023/07/11 06:07:28;;;;;;;;;;;;;;;55.50;6.23;96272.13;6178511;29;19926;-72
2023/07/11 06:10:33;;;;;;;;;;;;;;;56.44;5.05;96274.03;6177481;29;19969;-72
2023/07/11 06:13:38;;;;;;;;;;;;;;;56.26;5.53;96267.75;6178230;29;20404;-71
2023/07/11 06:16:41;;;;;;;;;;;;;;;56.79;5.40;96272.16;6164737;29;19926;-72
2023/07/11 06:19:45;;;;;;;;;;;;;;;56.39;4.43;96268.84;6520571;23;19953;-71
2023/07/11 06:22:55;;;;;;;;;;;;;;;55.47;4.75;96262.47;6201195;28;19921;-71
2023/07/11 06:25:57;;;;;;;;;;;;;;;54.81;4.43;96262.16;6201209;28;19921;-72
2023/07/11 06:29:04;;;;;;;;;;;;;;;54.23;4.86;96259.31;6179210;28;19929;-71
2023/07/11 06:32:08;;;;;;;;;;;;;;;54.03;5.08;96264.50;6172986;28;19922;-71
2023/07/11 06:35:10;;;;;;;;;;;;;;;54.26;4.81;96266.13;6172475;28;20039;-72
2023/07/11 06:38:12;;;;;;;;;;;;;;;54.50;4.65;96270.19;6139298;28;20455;-71
2023/07/11 06:41:16;;;;;;;;;;;;;;;54.96;4.83;96266.59;6175959;28;19926;-72
2023/07/11 06:44:24;;;;;;;;;;;;;;;54.88;4.97;96271.41;6180106;28;19929;-72
2023/07/11 06:47:33;;;;;;;;;;;;;;;54.94;4.65;96260.53;6193672;28;19985;-71
2023/07/11 06:50:39;;;;;;;;;;;;;;;55.31;4.16;96267.75;6190132;28;19929;-74
2023/07/11 06:53:42;;;;;;;;;;;;;;;54.53;4.45;96260.97;6175736;28;20094;-71
2023/07/11 06:56:49;;;;;;;;;;;;;;;55.20;4.38;96264.13;6176061;28;19929;-72
2023/07/11 06:59:53;;;;;;;;;;;;;;;56.04;4.11;96255.75;6188394;28;19922;-72
2023/07/11 07:02:56;;;;;;;;;;;;;;;56.50;3.77;96265.13;6202244;28;19930;-71
2023/07/11 07:06:09;;;;;;;;;;;;;;;56.59;3.26;96262.66;6198630;28;19902;-74
2023/07/11 07:09:26;;;;;;;;;;;;;;;56.31;3.90;96258.00;6202368;28;19953;-72
2023/07/11 07:12:28;;;;;;;;;;;;;;;56.34;3.73;96252.34;6202115;28;19922;-72
2023/07/11 07:15:34;;;;;;;;;;;;;;;56.18;3.82;96258.47;6200814;28;19922;-72
2023/07/11 07:18:39;;;;;;;;;;;;;;;56.42;3.54;96276.47;6201488;28;19928;-71
2023/07/11 07:21:42;;;;;;;;;;;;;;;55.95;3.71;96253.41;6197676;28;20303;-72
2023/07/11 07:24:48;;;;;;;;;;;;;;;56.44;3.11;96257.09;6195425;28;19922;-72
2023/07/11 07:27:50;;;;;;;;;;;;;;;55.69;3.50;96242.63;6183391;28;19928;-72
2023/07/11 07:30:59;;;;;;;;;;;;;;;55.65;3.87;96233.38;6162110;28;19921;-72
2023/07/11 07:34:01;;;;;;;;;;;;;;;56.11;3.87;96254.91;6148111;28;20478;-72
2023/07/11 07:37:04;;;;;;;;;;;;;;;56.33;3.23;96238.63;6198281;28;19922;-72
2023/07/11 07:40:11;;;;;;;;;;;;;;;56.43;3.17;96234.94;6205710;28;19922;-72
2023/07/11 07:43:16;;;;;;;;;;;;;;;56.21;3.00;96228.63;6196142;28;19973;-72
2023/07/11 07:46:19;;;;;;;;;;;;;;;55.47;3.52;96228.59;6176331;28;20075;-72
2023/07/11 07:49:21;;;;;;;;;;;;;;;55.61;3.28;96222.13;6176274;28;20019;-72
2023/07/11 07:52:25;;;;;;;;;;;;;;;55.38;3.70;96214.16;6176194;28;19928;-73
2023/07/11 07:55:27;;;;;;;;;;;;;;;55.73;3.39;96220.84;6175664;28;19922;-72
2023/07/11 07:58:33;;;;;;;;;;;;;;;55.27;3.71;96213.38;6175976;28;20021;-72
2023/07/11 08:01:36;;;;;;;;;;;;;;;54.31;4.19;96195.34;6174959;28;19928;-73
2023/07/11 08:04:37;;;;;;;;;;;;;;;54.41;4.19;96186.09;6175269;28;19978;-72
2023/07/11 08:07:45;;;;;;;;;;;;;;;55.55;3.83;96196.34;6175583;28;19922;-71
2023/07/11 08:10:47;;;;;;;;;;;;;;;55.62;3.90;96209.63;6175680;28;20021;-72
2023/07/11 08:13:50;;;;;;;;;;;;;;;55.25;3.88;96198.84;6175571;28;20013;-72
2023/07/11 08:16:53;;;;;;;;;;;;;;;54.83;4.25;96186.47;6158506;28;20012;-73
2023/07/11 08:19:55;;;;;;;;;;;;;;;54.63;4.50;96186.91;6174585;28;19998;-72
2023/07/11 08:22:57;;;;;;;;;;;;;;;54.88;4.38;96186.06;6174910;28;19922;-72
2023/07/11 08:26:00;;;;;;;;;;;;;;;55.13;4.37;96174.75;6175490;28;19926;-72
2023/07/11 08:29:04;;;;;;;;;;;;;;;55.49;4.33;96178.22;6175652;28;20008;-73
2023/07/11 08:32:07;;;;;;;;;;;;;;;56.69;3.62;96183.44;6158743;28;19922;-72
2023/07/11 08:35:10;;;;;;;;;;;;;;;57.45;3.61;96177.75;6175654;28;19929;-73
2023/07/11 08:38:13;;;;;;;;;;;;;;;57.99;3.59;96171.34;6180202;28;19922;-73
2023/07/11 08:41:35;;;;;;;;;;;;;;;58.00;3.45;96181.44;6157078;28;19922;-73
2023/07/11 08:44:40;;;;;;;;;;;;;;;56.53;3.85;96162.59;6157410;28;20020;-72
2023/07/11 08:47:49;;;;;;;;;;;;;;;57.62;3.12;96175.13;6175160;28;19956;-74
2023/07/11 08:51:02;;;;;;;;;;;;;;;56.87;3.34;96166.31;6175065;28;20459;-72
2023/07/11 08:54:06;;;;;;;;;;;;;;;55.79;3.70;96155.09;6158005;28;20014;-73
2023/07/11 08:57:11;;;;;;;;;;;;;;;55.39;3.47;96164.97;6174928;28;19922;-73
2023/07/11 09:00:18;;;;;;;;;;;;;;;54.56;4.05;96133.41;6174957;28;19926;-73
2023/07/11 09:03:30;;;;;;;;;;;;;;;54.76;3.82;96138.63;6157774;28;19921;-72
2023/07/11 09:06:36;;;;;;;;;;;;;;;54.37;4.13;96128.22;6174549;28;20364;-72
2023/07/11 09:09:41;;;;;;;;;;;;;;;54.54;3.73;96116.09;6174469;28;20024;-73
2023/07/11 09:12:58;;;;;;;;;;;;;;;54.75;4.08;96125.72;6174661;28;19930;-73
2023/07/11 09:16:21;;;;;;;;;;;;;;;54.09;3.69;96129.81;6174405;28;20024;-74
2023/07/11 09:19:30;;;;;;;;;;;;;;;53.53;4.73;96148.19;6135116;28;19922;-73
2023/07/11 09:22:51;;;;;;;;;;;;;;;52.76;5.08;96122.94;6174535;28;20012;-72
2023/07/11 09:26:16;;;;;;;;;;;;;;;51.89;3.89;96120.66;6171687;28;20312;-73
2023/07/11 09:29:20;;;;;;;;;;;;;;;50.43;4.58;96114.06;6174206;28;20017;-73
2023/07/11 09:32:34;;;;;;;;;;;;;;;49.40;5.16;96097.91;6173951;28;20012;-73
2023/07/11 09:35:37;;;;;;;;;;;;;;;48.22;6.08;96112.06;6174099;28;19922;-72
2023/07/11 09:38:47;;;;;;;;;;;;;;;47.71;6.47;96108.38;6156266;28;20446;-74
2023/07/11 09:41:55;;;;;;;;;;;;;;;47.74;6.43;96119.59;6156065;28;19921;-73
2023/07/11 09:45:05;;;;;;;;;;;;;;;47.78;6.18;96108.56;6173718;28;19922;-72
2023/07/11 09:48:19;;;;;;;;;;;;;;;48.12;5.83;96101.44;6173082;28;20392;-73
2023/07/11 09:51:28;;;;;;;;;;;;;;;48.93;5.59;96098.94;6173298;28;20020;-73
2023/07/11 09:54:43;;;;;;;;;;;;;;;48.81;5.94;96090.69;6173364;28;20287;-72
2023/07/11 09:57:49;;;;;;;;;;;;;;;48.99;5.42;96083.50;6173459;28;19921;-72
2023/07/11 10:00:55;;;;;;;;;;;;;;;49.28;5.78;96089.66;6173415;28;20264;-73
2023/07/11 10:03:59;;;;;;;;;;;;;;;49.72;5.04;96086.50;6173080;28;19918;-75
2023/07/11 10:07:06;;;;;;;;;;;;;;;49.36;5.33;96073.84;6173102;28;19972;-73
2023/07/11 10:10:13;;;;;;;;;;;;;;;48.82;5.25;96077.53;6173049;28;20388;-73
2023/07/11 10:13:17;;;;;;;;;;;;;;;48.15;5.80;96078.41;6173121;28;20467;-72
2023/07/11 10:16:20;;;;;;;;;;;;;;;47.10;5.95;96054.56;6173006;28;19926;-72
2023/07/11 10:19:24;;;;;;;;;;;;;;;46.14;6.51;96071.94;6172631;28;19922;-72
2023/07/11 10:22:29;;;;;;;;;;;;;;;45.38;6.79;96063.06;6155845;28;19929;-73
2023/07/11 10:25:31;;;;;;;;;;;;;;;44.75;6.80;96049.28;6172841;28;19917;-73
2023/07/11 10:28:38;;;;;;;;;;;;;;;44.48;7.42;96039.56;6173202;28;20008;-72
2023/07/11 10:31:48;;;;;;;;;;;;;;;44.00;7.21;96060.25;6172703;28;20028;-72
2023/07/11 10:34:54;;;;;;;;;;;;;;;43.49;7.68;96045.44;6172693;28;20013;-74
2023/07/11 10:38:00;;;;;;;;;;;;;;;42.60;7.91;96036.75;6172409;28;20378;-73
2023/07/11 10:41:17;;;;;;;;;;;;;;;42.49;8.33;96043.75;6172345;28;20030;-72
2023/07/11 10:44:24;;;;;;;;;;;;;;;42.25;8.35;96047.78;6155152;28;19922;-71
2023/07/11 10:47:31;;;;;;;;;;;;;;;43.12;8.57;96047.81;6172069;28;19922;-72
2023/07/11 10:50:46;;;;;;;;;;;;;;;44.35;8.74;96037.84;6155097;28;19978;-72
2023/07/11 10:54:07;;;;;;;;;;;;;;;44.89;8.14;96045.41;6172296;28;19917;-72
2023/07/11 10:57:29;;;;;;;;;;;;;;;44.31;8.72;96043.25;6172174;28;19921;-74
2023/07/11 11:00:49;;;;;;;;;;;;;;;43.72;8.72;96038.50;6154710;28;20295;-73
2023/07/11 11:04:00;;;;;;;;;;;;;;;43.49;8.14;96031.59;6172985;28;19933;-72
2023/07/11 11:07:06;;;;;;;;;;;;;;;43.42;8.38;96022.97;6180066;28;19921;-72
2023/07/11 11:10:27;;;;;;;;;;;;;;;42.83;9.12;96029.94;6163192;28;20319;-72
2023/07/11 11:13:30;;;;;;;;;;;;;;;42.17;8.24;96027.28;6179939;28;19921;-72
2023/07/11 11:16:52;;;;;;;;;;;;;;;41.16;9.19;96029.00;6179963;28;19926;-73
2023/07/11 11:20:18;;;;;;;;;;;;;;;40.99;8.52;96024.19;6179740;28;19921;-72
2023/07/11 11:23:36;;;;;;;;;;;;;;;40.72;8.68;96025.13;6180237;28;19929;-73
2023/07/11 11:26:38;;;;;;;;;;;;;;;40.86;8.63;96025.06;6179837;28;19922;-74
2023/07/11 11:30:02;;;;;;;;;;;;;;;40.96;8.25;96019.28;6162721;28;19922;-72
2023/07/11 11:33:22;;;;;;;;;;;;;;;41.16;8.18;96040.03;6179175;28;19956;-73
2023/07/11 11:36:37;;;;;;;;;;;;;;;41.49;8.29;96012.94;6179923;28;20290;-73
2023/07/11 11:39:43;;;;;;;;;;;;;;;41.82;8.38;96012.56;6162778;28;19922;-72
2023/07/11 11:42:51;;;;;;;;;;;;;;;42.25;7.98;96009.06;6179806;28;19922;-73
2023/07/11 11:46:06;;;;;;;;;;;;;;;42.34;8.26;96009.91;6179614;28;19961;-73
2023/07/11 11:49:11;;;;;;;;;;;;;;;42.07;8.16;96007.41;6179433;28;19929;-73
2023/07/11 11:52:14;;;;;;;;;;;;;;;41.21;8.56;95998.50;6161787;28;19926;-72
2023/07/11 11:55:40;;;;;;;;;;;;;;;40.70;8.68;96001.75;6179551;28;20020;-72
2023/07/11 11:58:54;;;;;;;;;;;;;;;40.03;9.09;95997.75;6152514;28;19925;-72
2023/07/11 12:02:10;;;;;;;;;;;;;;;40.52;9.08;95995.28;6179690;28;19921;-72
2023/07/11 12:05:19;;;;;;;;;;;;;;;40.83;9.42;95993.41;6162053;28;19926;-72
2023/07/11 12:08:25;;;;;;;;;;;;;;;41.16;9.31;95990.34;6162195;28;19929;-72
2023/07/11 12:11:31;;;;;;;;;;;;;;;41.38;8.14;95992.25;6179259;28;20025;-73
2023/07/11 12:14:36;;;;;;;;;;;;;;;41.49;8.25;95988.09;6162486;28;19922;-70
2023/07/11 12:17:39;;;;;;;;;;;;;;;41.47;8.42;95982.06;6158198;28;19921;-72
2023/07/11 12:21:02;;;;;;;;;;;;;;;41.59;8.03;95969.59;6125890;29;19923;-72
2023/07/11 12:24:17;;;;;;;;;;;;;;;41.51;8.12;95979.50;6110528;29;20308;-73
2023/07/11 12:27:24;;;;;;;;;;;;;;;41.45;8.04;95987.09;6127669;29;19922;-72
2023/07/11 12:30:27;;;;;;;;;;;;;;;41.43;8.26;95978.31;6127384;29;19923;-72
2023/07/11 12:33:34;;;;;;;;;;;;;;;41.52;7.96;95977.53;6127528;29;19927;-73
2023/07/11 12:36:52;;;;;;;;;;;;;;;41.52;8.15;95972.03;6127308;29;19922;-73
2023/07/11 12:40:30;;;;;;;;;;;;;;;41.31;8.00;95963.50;6110285;29;19974;-73
2023/07/11 12:43:34;;;;;;;;;;;;;;;40.94;8.21;95966.38;6055966;29;20306;-73
2023/07/11 12:46:38;;;;;;;;;;;;;;;40.71;8.68;95962.00;6127087;29;19946;-73
2023/07/11 12:49:42;;;;;;;;;;;;;;;40.54;8.59;95957.16;6125802;29;19922;-73
2023/07/11 12:53:01;;;;;;;;;;;;;;;40.34;8.80;95950.22;6125729;29;19938;-72
2023/07/11 12:56:11;;;;;;;;;;;;;;;40.31;8.60;95948.09;6126739;29;20415;-73
2023/07/11 12:59:21;;;;;;;;;;;;;;;40.16;8.79;95950.03;6127039;29;20313;-73
2023/07/11 13:02:27;;;;;;;;;;;;;;;39.96;8.96;95956.03;6126675;29;19923;-73
2023/07/11 13:05:33;;;;;;;;;;;;;;;39.94;9.46;95955.53;6126637;29;19946;-71
2023/07/11 13:08:36;;;;;;;;;;;;;;;39.79;9.45;95953.13;6126908;29;19998;-73
2023/07/11 13:11:40;;;;;;;;;;;;;;;39.61;9.59;95939.16;6126645;29;20318;-73
2023/07/11 13:14:44;;;;;;;;;;;;;;;39.73;9.43;95942.19;6124928;29;20013;-76
2023/07/11 13:17:49;;;;;;;;;;;;;;;39.44;9.42;95952.75;6110151;28;20412;-72
2023/07/11 13:20:51;;;;;;;;;;;;;;;39.26;9.62;95943.41;6174343;28;20303;-73
2023/07/11 13:23:56;;;;;;;;;;;;;;;39.22;9.57;95945.16;6156878;28;19928;-72
2023/07/11 13:27:03;;;;;;;;;;;;;;;39.09;9.53;95941.28;6156220;28;20347;-72
2023/07/11 13:30:19;;;;;;;;;;;;;;;38.77;10.15;95939.38;6174184;28;19929;-73
2023/07/11 13:33:27;;;;;;;;;;;;;;;39.11;9.51;95936.28;6173884;28;20486;-73
2023/07/11 13:36:31;;;;;;;;;;;;;;;38.96;9.79;95939.34;6140935;28;19922;-72
2023/07/11 13:39:43;;;;;;;;;;;;;;;39.19;9.94;95932.84;6173653;28;19929;-71
2023/07/11 13:42:47;;;;;;;;;;;;;;;39.20;9.94;95925.38;6173541;28;20308;-72
2023/07/11 13:45:50;;;;;;;;;;;;;;;38.94;10.44;95928.63;6155829;28;20019;-73
2023/07/11 13:48:54;;;;;;;;;;;;;;;38.87;10.51;95921.91;6156310;28;19945;-72
2023/07/11 13:51:58;;;;;;;;;;;;;;;38.82;10.83;95937.34;6139547;28;19929;-73
2023/07/11 13:55:15;;;;;;;;;;;;;;;38.72;11.09;95932.03;6173565;28;20307;-72
2023/07/11 13:58:19;;;;;;;;;;;;;;;38.32;10.96;95933.53;6155461;28;19933;-73
2023/07/11 14:01:23;;;;;;;;;;;;;;;38.41;11.18;95929.00;6173100;28;19929;-73
2023/07/11 14:04:29;;;;;;;;;;;;;;;38.21;10.93;95921.88;6173155;28;20301;-72
2023/07/11 14:07:33;;;;;;;;;;;;;;;38.35;11.45;95924.69;6173005;28;20353;-72
2023/07/11 14:10:38;;;;;;;;;;;;;;;38.32;11.97;95934.34;6173207;28;19921;-72
2023/07/11 14:13:42;;;;;;;;;;;;;;;38.14;11.76;95930.50;6156014;28;20300;-72
2023/07/11 14:16:45;;;;;;;;;;;;;;;37.97;12.12;95922.81;6172974;28;20388;-72
2023/07/11 14:19:51;;;;;;;;;;;;;;;37.89;12.21;95915.19;6172661;28;19929;-72
2023/07/11 14:22:52;;;;;;;;;;;;;;;37.92;11.99;95919.28;6173112;28;19922;-72
2023/07/11 14:25:59;;;;;;;;;;;;;;;37.84;12.69;95922.69;6172820;28;20388;-71
2023/07/11 14:29:02;;;;;;;;;;;;;;;37.67;12.97;95924.00;6172678;28;19922;-71
2023/07/11 14:32:06;;;;;;;;;;;;;;;37.59;13.08;95926.59;6172592;28;19929;-72
2023/07/11 14:35:14;;;;;;;;;;;;;;;37.48;13.45;95918.53;6172293;28;19929;-72
2023/07/11 14:38:19;;;;;;;;;;;;;;;37.56;13.50;95910.72;6155584;28;20036;-71
2023/07/11 14:41:23;;;;;;;;;;;;;;;37.30;13.37;95914.59;6154331;28;19929;-72
2023/07/11 14:44:28;;;;;;;;;;;;;;;37.15;13.68;95922.22;6155089;28;20427;-71
2023/07/11 14:47:32;;;;;;;;;;;;;;;37.01;13.95;95911.94;6172195;28;19922;-72
2023/07/11 14:50:36;;;;;;;;;;;;;;;36.96;14.01;95911.94;6172510;28;19929;-72
2023/07/11 14:53:41;;;;;;;;;;;;;;;36.61;14.11;95919.44;6172401;28;19922;-72
2023/07/11 14:56:45;;;;;;;;;;;;;;;36.60;13.88;95912.34;6172376;28;20024;-71
2023/07/11 14:59:49;;;;;;;;;;;;;;;36.31;14.61;95919.69;6154468;28;19929;-72
2023/07/11 15:02:53;;;;;;;;;;;;;;;36.05;14.17;95911.69;6139467;28;19929;-73
2023/07/11 15:05:56;;;;;;;;;;;;;;;36.01;14.38;95910.59;6172029;28;20016;-73
2023/07/11 15:09:00;;;;;;;;;;;;;;;35.94;14.78;95918.28;6171717;28;19922;-72
2023/07/11 15:12:03;;;;;;;;;;;;;;;35.70;14.68;95909.97;6154354;28;20374;-72
2023/07/11 15:15:12;;;;;;;;;;;;;;;35.62;14.72;95913.31;6138684;28;20411;-72
2023/07/11 15:18:17;;;;;;;;;;;;;;;35.78;15.36;95919.50;6151752;28;19922;-72
2023/07/11 15:21:20;;;;;;;;;;;;;;;35.48;15.33;95913.06;6171759;28;19922;-72
2023/07/11 15:24:24;;;;;;;;;;;;;;;35.29;15.51;95916.44;6154637;28;20291;-72
2023/07/11 15:27:28;;;;;;;;;;;;;;;35.28;15.54;95917.53;6171792;28;19922;-72
2023/07/11 15:30:32;;;;;;;;;;;;;;;35.14;15.46;95912.94;6154411;28;20024;-72
2023/07/11 15:33:40;;;;;;;;;;;;;;;34.84;15.77;95914.63;6171695;28;19928;-73
2023/07/11 15:36:42;;;;;;;;;;;;;;;34.80;15.90;95914.38;6154725;28;19922;-72
2023/07/11 15:39:45;;;;;;;;;;;;;;;34.46;16.18;95916.06;6171984;28;19922;-70
2023/07/11 15:42:51;;;;;;;;;;;;;;;34.23;16.51;95920.16;6171525;28;19929;-71
2023/07/11 15:45:55;;;;;;;;;;;;;;;34.08;16.86;95926.41;6171494;28;20016;-71
2023/07/11 15:48:59;;;;;;;;;;;;;;;34.00;17.33;95916.84;6171450;28;19928;-71
2023/07/11 15:52:03;;;;;;;;;;;;;;;34.07;17.47;95914.69;6174485;28;19928;-71
2023/07/11 15:55:06;;;;;;;;;;;;;;;33.76;17.46;95920.06;6143216;28;19922;-71
2023/07/11 15:58:14;;;;;;;;;;;;;;;33.44;17.80;95920.25;6176003;28;20017;-71
2023/07/11 16:01:18;;;;;;;;;;;;;;;33.25;18.09;95913.63;6175852;28;20292;-73
2023/07/11 16:04:25;;;;;;;;;;;;;;;32.97;18.31;95914.84;6175550;28;20310;-73
2023/07/11 16:07:28;;;;;;;;;;;;;;;32.92;18.20;95912.88;6142705;28;19921;-72
2023/07/11 16:10:32;;;;;;;;;;;;;;;32.83;18.39;95914.50;6175684;28;20016;-73
2023/07/11 16:13:34;;;;;;;;;;;;;;;32.71;19.00;95917.41;6175455;28;20310;-73